Time;durP1;ratioP1;P1;durP2;ratioP2;P2;SDS_P1;SDS_P2;PMS_P1;PMS_P2;Temp;Humidity;BMP_temperature;BMP_pressure;BME280_temperature;BME280_humidity;BME280_pressure;Samples;Min_cycle;Max_cycle;Signal;HPM_P1;HPM_P2
2020/12/13 00:01:35;;;;;;;5.50;4.03;;;5.90;99.90;;;;;;5035068;28;20489;-71
2020/12/13 00:04:02;;;;;;;4.10;3.67;;;5.90;99.90;;;;;;5035081;28;20446;-71
2020/12/13 00:06:31;;;;;;;5.60;3.50;;;5.90;99.90;;;;;;5034697;28;20443;-71
2020/12/13 00:08:57;;;;;;;4.80;4.10;;;5.90;99.90;;;;;;5035034;28;20443;-71
2020/12/13 00:11:23;;;;;;;4.17;3.77;;;6.00;99.90;;;;;;5035088;28;20462;-71
2020/12/13 00:13:49;;;;;;;5.23;3.93;;;6.00;99.90;;;;;;5034781;28;20482;-71
2020/12/13 00:16:15;;;;;;;4.77;4.27;;;6.00;99.90;;;;;;5034504;28;20443;-71
2020/12/13 00:18:42;;;;;;;5.17;4.47;;;5.90;99.90;;;;;;5034465;28;20961;-71
2020/12/13 00:21:11;;;;;;;4.67;4.13;;;5.90;99.90;;;;;;5034365;28;20492;-71
2020/12/13 00:23:38;;;;;;;4.40;4.00;;;5.80;99.90;;;;;;5034673;28;20447;-71
2020/12/13 00:26:06;;;;;;;5.60;4.03;;;5.80;99.90;;;;;;5034260;28;20485;-70
2020/12/13 00:28:33;;;;;;;6.43;4.00;;;5.80;99.90;;;;;;5034606;28;20446;-70
2020/12/13 00:30:59;;;;;;;5.27;4.00;;;5.80;99.90;;;;;;5034904;28;21012;-71
2020/12/13 00:33:25;;;;;;;4.03;3.33;;;5.70;99.90;;;;;;5034492;28;20443;-70
2020/12/13 00:35:51;;;;;;;6.80;3.87;;;5.70;99.90;;;;;;5034400;28;20843;-71
2020/12/13 00:38:20;;;;;;;3.80;3.50;;;5.70;99.90;;;;;;5034395;28;20438;-70
2020/12/13 00:40:49;;;;;;;3.27;2.97;;;5.60;99.90;;;;;;5034350;28;20463;-71
2020/12/13 00:43:15;;;;;;;3.43;3.13;;;5.60;99.90;;;;;;5034072;28;21104;-71
2020/12/13 00:45:41;;;;;;;3.70;3.13;;;5.60;99.90;;;;;;5034033;28;20925;-71
2020/12/13 00:48:09;;;;;;;3.67;3.20;;;5.60;99.90;;;;;;5034251;28;20450;-71
2020/12/13 00:50:36;;;;;;;3.10;2.80;;;5.60;99.90;;;;;;5033876;28;20845;-71
2020/12/13 00:53:03;;;;;;;3.93;3.53;;;5.70;99.90;;;;;;5034157;28;20449;-70
2020/12/13 00:55:30;;;;;;;2.90;2.70;;;5.70;99.90;;;;;;5033942;28;20862;-71
2020/12/13 00:57:56;;;;;;;3.53;3.23;;;5.70;99.90;;;;;;5034058;28;20445;-71
2020/12/13 01:00:22;;;;;;;3.30;2.90;;;5.70;99.90;;;;;;5033942;28;20459;-71
2020/12/13 01:02:48;;;;;;;4.10;2.70;;;5.80;99.90;;;;;;5033946;28;20808;-71
2020/12/13 01:05:14;;;;;;;2.90;2.70;;;5.80;99.90;;;;;;5033585;28;20446;-71
2020/12/13 01:07:42;;;;;;;3.40;3.10;;;5.90;99.90;;;;;;5033907;28;20443;-71
2020/12/13 01:10:09;;;;;;;5.00;2.57;;;5.90;99.90;;;;;;5033776;28;20473;-71
2020/12/13 01:12:36;;;;;;;2.60;2.40;;;6.00;99.90;;;;;;5034042;28;20447;-71
2020/12/13 01:15:05;;;;;;;3.07;2.20;;;6.00;99.90;;;;;;5033375;28;20843;-71
2020/12/13 01:17:31;;;;;;;2.30;2.10;;;6.10;99.90;;;;;;5033729;28;20445;-70
2020/12/13 01:19:58;;;;;;;3.47;2.63;;;6.10;99.90;;;;;;5033594;28;20446;-71
2020/12/13 01:22:24;;;;;;;2.10;1.90;;;6.10;99.90;;;;;;5033669;28;20443;-71
2020/12/13 01:24:50;;;;;;;2.83;2.10;;;6.10;99.90;;;;;;5033394;28;20447;-71
2020/12/13 01:27:16;;;;;;;2.40;2.20;;;6.10;99.90;;;;;;5033322;28;20438;-71
2020/12/13 01:29:43;;;;;;;2.77;2.20;;;6.10;99.90;;;;;;5033472;28;20445;-71
2020/12/13 01:32:10;;;;;;;2.73;2.10;;;6.10;99.90;;;;;;5033508;28;20450;-70
2020/12/13 01:34:36;;;;;;;3.13;2.10;;;6.10;99.90;;;;;;5033403;28;20490;-71
2020/12/13 01:37:02;;;;;;;2.03;1.80;;;6.10;99.90;;;;;;5033119;28;20457;-71
2020/12/13 01:39:28;;;;;;;2.27;2.07;;;6.00;99.90;;;;;;5033376;28;20453;-70
2020/12/13 01:41:57;;;;;;;2.20;2.00;;;6.10;99.90;;;;;;5033377;28;20478;-71
2020/12/13 01:44:30;;;;;;;2.53;2.33;;;6.10;99.90;;;;;;5033194;28;20431;-71
2020/12/13 01:46:57;;;;;;;2.60;2.40;;;6.10;99.90;;;;;;5033165;28;20454;-70
2020/12/13 01:49:29;;;;;;;2.53;2.33;;;6.20;99.90;;;;;;5032992;28;20934;-71
2020/12/13 01:52:38;;;;;;;2.57;2.33;;;6.20;99.90;;;;;;5032998;28;20467;-71
2020/12/13 01:55:01;;;;;;;2.50;2.30;;;6.20;99.90;;;;;;5032697;28;20562;-71
2020/12/13 01:57:33;;;;;;;3.83;2.80;;;6.20;99.90;;;;;;5033316;28;20422;-71
2020/12/13 02:00:02;;;;;;;2.63;2.43;;;6.10;99.90;;;;;;5033180;28;20442;-71
2020/12/13 02:02:35;;;;;;;3.47;3.10;;;6.10;99.90;;;;;;5033200;28;20449;-71
2020/12/13 02:05:04;;;;;;;2.90;2.70;;;6.10;99.90;;;;;;5033221;28;20434;-70
2020/12/13 02:07:30;;;;;;;3.03;2.30;;;6.10;99.90;;;;;;5033566;28;20439;-71
2020/12/13 02:09:58;;;;;;;3.17;2.77;;;6.10;99.90;;;;;;5033112;28;20454;-71
2020/12/13 02:12:24;;;;;;;3.50;2.67;;;6.20;99.90;;;;;;5033172;28;20443;-71
2020/12/13 02:14:50;;;;;;;2.60;2.10;;;6.20;99.90;;;;;;5033037;28;20481;-71
2020/12/13 02:17:18;;;;;;;2.83;2.63;;;6.20;99.90;;;;;;5032775;28;20950;-71
2020/12/13 02:19:45;;;;;;;2.63;2.30;;;6.20;99.90;;;;;;5032932;28;20439;-71
2020/12/13 02:22:13;;;;;;;3.87;3.00;;;6.20;99.90;;;;;;5032722;28;20447;-71
2020/12/13 02:24:39;;;;;;;4.10;3.10;;;6.20;99.90;;;;;;5032837;28;20441;-71
2020/12/13 02:27:07;;;;;;;3.53;2.83;;;6.20;99.90;;;;;;5033006;28;20449;-71
2020/12/13 02:29:34;;;;;;;3.13;2.93;;;6.20;99.90;;;;;;5032663;28;20820;-71
2020/12/13 02:32:00;;;;;;;2.90;2.60;;;6.20;99.90;;;;;;5032850;28;20824;-71
2020/12/13 02:34:26;;;;;;;3.27;3.00;;;6.20;99.90;;;;;;5032570;28;20478;-71
2020/12/13 02:36:53;;;;;;;3.10;2.73;;;6.20;99.90;;;;;;5032889;28;20447;-71
2020/12/13 02:39:20;;;;;;;2.87;2.67;;;6.20;99.90;;;;;;5032900;28;20439;-71
2020/12/13 02:42:01;;;;;;;3.43;3.10;;;6.20;99.90;;;;;;5033079;28;20474;-71
2020/12/13 02:44:27;;;;;;;3.77;2.90;;;6.20;99.90;;;;;;5032593;28;21024;-71
2020/12/13 02:46:53;;;;;;;3.90;2.80;;;6.20;99.90;;;;;;5032839;28;20443;-71
2020/12/13 02:49:20;;;;;;;3.10;2.80;;;6.20;99.90;;;;;;5032769;28;20450;-71
2020/12/13 02:51:46;;;;;;;3.20;3.00;;;6.20;99.90;;;;;;5032720;28;20473;-71
2020/12/13 02:54:12;;;;;;;3.60;3.30;;;6.20;99.90;;;;;;5032657;28;20482;-71
2020/12/13 02:56:41;;;;;;;3.60;2.90;;;6.20;99.90;;;;;;5033997;28;20442;-71
2020/12/13 02:59:08;;;;;;;3.37;2.90;;;6.20;99.90;;;;;;5036329;28;20826;-71
2020/12/13 03:01:34;;;;;;;3.90;3.20;;;6.20;99.90;;;;;;5035889;28;21004;-71
2020/12/13 03:04:00;;;;;;;3.00;2.70;;;6.20;99.90;;;;;;5036164;28;20454;-71
2020/12/13 03:06:26;;;;;;;2.97;2.57;;;6.20;99.90;;;;;;5036736;28;20447;-71
2020/12/13 03:08:53;;;;;;;3.20;2.60;;;6.20;99.90;;;;;;5036158;28;20805;-71
2020/12/13 03:11:20;;;;;;;2.77;2.57;;;6.20;99.90;;;;;;5035713;28;20919;-71
2020/12/13 03:13:48;;;;;;;4.60;3.20;;;6.20;99.90;;;;;;5036078;28;20505;-71
2020/12/13 03:16:14;;;;;;;3.40;3.10;;;6.20;99.90;;;;;;5035917;28;20482;-71
2020/12/13 03:18:41;;;;;;;8.37;3.27;;;6.20;99.90;;;;;;5035649;28;20956;-71
2020/12/13 03:21:07;;;;;;;4.03;3.40;;;6.20;99.90;;;;;;5036146;28;20454;-71
2020/12/13 03:23:33;;;;;;;3.43;3.00;;;6.10;99.90;;;;;;5036434;28;20446;-71
2020/12/13 03:25:59;;;;;;;3.60;3.30;;;6.10;99.90;;;;;;5035483;28;20474;-71
2020/12/13 03:28:26;;;;;;;3.67;3.23;;;6.00;99.90;;;;;;5035767;28;20453;-71
2020/12/13 03:30:53;;;;;;;4.50;3.10;;;6.00;99.90;;;;;;5035708;28;20911;-71
2020/12/13 03:33:19;;;;;;;3.03;2.80;;;5.90;99.90;;;;;;5035689;28;20438;-71
2020/12/13 03:35:45;;;;;;;3.70;2.90;;;5.90;99.90;;;;;;5035569;28;20479;-71
2020/12/13 03:38:11;;;;;;;2.53;2.33;;;5.90;99.90;;;;;;5035305;28;20953;-71
2020/12/13 03:40:38;;;;;;;2.53;2.20;;;6.00;99.90;;;;;;5035449;28;20469;-71
2020/12/13 03:43:04;;;;;;;3.33;3.00;;;6.10;99.90;;;;;;5035526;28;20442;-71
2020/12/13 03:45:30;;;;;;;2.40;2.20;;;6.10;99.90;;;;;;5035149;28;20934;-71
2020/12/13 03:47:57;;;;;;;2.50;2.30;;;6.10;99.90;;;;;;5035386;28;20451;-71
2020/12/13 03:50:23;;;;;;;3.77;2.33;;;6.10;99.90;;;;;;5035780;28;20494;-71
2020/12/13 03:52:50;;;;;;;3.37;2.77;;;6.20;99.90;;;;;;5035499;28;20451;-71
2020/12/13 03:55:16;;;;;;;3.20;2.60;;;6.20;99.90;;;;;;5034852;28;21032;-71
2020/12/13 03:57:42;;;;;;;2.83;2.20;;;6.20;99.90;;;;;;5035203;28;20454;-71
2020/12/13 04:00:10;;;;;;;2.77;2.57;;;6.20;99.90;;;;;;5035073;28;20467;-71
2020/12/13 04:02:36;;;;;;;2.60;2.40;;;6.30;99.90;;;;;;5035056;28;20453;-71
2020/12/13 04:05:03;;;;;;;2.20;2.10;;;6.30;99.90;;;;;;5035038;28;20458;-71
2020/12/13 04:07:29;;;;;;;2.77;2.20;;;6.40;99.90;;;;;;5034728;28;20450;-71
2020/12/13 04:09:55;;;;;;;2.80;2.50;;;6.40;99.90;;;;;;5034498;28;20442;-71
2020/12/13 04:12:21;;;;;;;2.47;2.27;;;6.40;99.90;;;;;;5034918;28;20443;-71
2020/12/13 04:14:48;;;;;;;2.70;2.20;;;6.50;99.90;;;;;;5034732;28;20504;-71
2020/12/13 04:17:14;;;;;;;2.77;2.57;;;6.40;99.90;;;;;;5034836;28;20438;-70
2020/12/13 04:19:40;;;;;;;1.60;1.50;;;6.40;99.90;;;;;;5034448;28;20957;-71
2020/12/13 04:22:07;;;;;;;2.77;2.20;;;6.40;99.90;;;;;;5034870;28;20453;-71
2020/12/13 04:24:33;;;;;;;1.93;1.83;;;6.40;99.90;;;;;;5034893;28;20446;-71
2020/12/13 04:27:01;;;;;;;1.93;1.80;;;6.40;99.90;;;;;;5034581;28;20490;-71
2020/12/13 04:29:27;;;;;;;1.73;1.60;;;6.40;99.90;;;;;;5034635;28;20449;-71
2020/12/13 04:31:54;;;;;;;1.97;1.80;;;6.40;99.90;;;;;;5034177;28;20977;-71
2020/12/13 04:34:20;;;;;;;3.90;1.80;;;6.40;99.90;;;;;;5034180;28;20964;-71
2020/12/13 04:36:46;;;;;;;1.80;1.70;;;6.40;99.90;;;;;;5034414;28;20442;-71
2020/12/13 04:39:13;;;;;;;2.13;1.93;;;6.50;99.90;;;;;;5034426;28;20442;-71
2020/12/13 04:41:40;;;;;;;2.20;2.00;;;6.40;99.90;;;;;;5034284;28;20473;-71
2020/12/13 04:44:06;;;;;;;2.57;2.20;;;6.40;99.90;;;;;;5034314;28;20443;-71
2020/12/13 04:46:34;;;;;;;3.00;2.17;;;6.30;99.90;;;;;;5033935;28;20446;-71
2020/12/13 04:49:00;;;;;;;2.33;2.13;;;6.30;99.90;;;;;;5034180;28;20439;-71
2020/12/13 04:51:27;;;;;;;2.30;2.10;;;6.30;99.90;;;;;;5034112;28;20467;-71
2020/12/13 04:54:04;;;;;;;4.60;2.50;;;6.40;99.90;;;;;;5033797;28;20823;-71
2020/12/13 04:56:33;;;;;;;2.50;1.93;;;6.30;99.90;;;;;;5033793;28;20422;-71
2020/12/13 04:59:01;;;;;;;1.83;1.73;;;6.30;99.90;;;;;;5034008;28;20446;-71
2020/12/13 05:01:28;;;;;;;1.50;1.40;;;6.30;99.90;;;;;;5033961;28;20520;-71
2020/12/13 05:03:54;;;;;;;2.27;2.07;;;6.30;99.90;;;;;;5033891;28;20470;-70
2020/12/13 05:06:21;;;;;;;2.20;2.00;;;6.20;99.90;;;;;;5033920;28;20497;-71
2020/12/13 05:08:48;;;;;;;1.70;1.60;;;6.20;99.90;;;;;;5033846;28;20442;-71
2020/12/13 05:11:14;;;;;;;1.80;1.70;;;6.20;99.90;;;;;;5033788;28;20538;-71
2020/12/13 05:13:42;;;;;;;2.53;1.70;;;6.20;99.90;;;;;;5033785;28;20451;-71
2020/12/13 05:16:08;;;;;;;3.37;1.97;;;6.20;99.90;;;;;;5033688;28;20482;-71
2020/12/13 05:18:38;;;;;;;2.23;2.03;;;6.20;99.90;;;;;;5033938;28;20446;-71
2020/12/13 05:21:05;;;;;;;4.80;1.87;;;6.20;99.90;;;;;;5032741;28;20501;-71
2020/12/13 05:23:31;;;;;;;4.73;2.00;;;6.20;99.90;;;;;;5033319;28;20822;-71
2020/12/13 05:25:57;;;;;;;2.97;1.50;;;6.20;99.90;;;;;;5033216;28;20501;-71
2020/12/13 05:28:24;;;;;;;2.43;2.23;;;6.20;99.90;;;;;;5033552;28;20438;-70
2020/12/13 05:30:53;;;;;;;1.80;1.57;;;6.20;99.90;;;;;;5033449;28;20463;-71
2020/12/13 05:33:25;;;;;;;2.70;1.20;;;6.20;99.90;;;;;;5033473;28;20811;-71
2020/12/13 05:35:59;;;;;;;1.50;1.40;;;6.20;99.90;;;;;;5033461;28;20517;-71
2020/12/13 05:38:31;;;;;;;1.60;1.50;;;6.20;99.90;;;;;;5033461;28;20427;-71
2020/12/13 05:40:58;;;;;;;1.50;1.30;;;6.20;99.90;;;;;;5033347;28;20485;-70
2020/12/13 05:43:26;;;;;;;1.60;1.50;;;6.20;99.90;;;;;;5033369;28;20814;-71
2020/12/13 05:48:55;;;;;;;3.40;1.20;;;6.30;99.90;;;;;;5013032;28;20481;-71
2020/12/13 05:51:36;;;;;;;1.30;1.20;;;6.20;99.90;;;;;;5033236;28;20463;-71
2020/12/13 05:54:04;;;;;;;1.40;1.30;;;6.30;99.90;;;;;;5033277;28;20435;-71
2020/12/13 05:56:30;;;;;;;1.50;1.40;;;6.20;99.90;;;;;;5032840;28;20853;-71
2020/12/13 05:58:59;;;;;;;1.17;1.07;;;6.20;99.90;;;;;;5032916;28;20954;-71
2020/12/13 06:01:26;;;;;;;1.60;1.13;;;6.30;99.90;;;;;;5032803;28;20466;-71
2020/12/13 06:03:53;;;;;;;1.07;0.90;;;6.30;99.90;;;;;;5033093;28;20446;-71
2020/12/13 06:06:22;;;;;;;2.23;1.40;;;6.30;99.90;;;;;;5032841;28;20930;-71
2020/12/13 06:09:07;;;;;;;2.00;0.90;;;6.40;99.90;;;;;;5033105;28;20442;-71
2020/12/13 06:11:36;;;;;;;1.80;1.10;;;6.30;99.90;;;;;;5033077;28;20455;-71
2020/12/13 06:14:15;;;;;;;1.10;1.00;;;6.30;99.90;;;;;;5033064;28;20439;-71
2020/12/13 06:16:42;;;;;;;1.10;1.00;;;6.30;99.90;;;;;;5033319;28;20415;-71
2020/12/13 06:19:12;;;;;;;0.80;0.80;;;6.30;99.90;;;;;;5032735;28;20941;-70
2020/12/13 06:21:39;;;;;;;0.70;0.70;;;6.30;99.90;;;;;;5033009;28;20465;-71
2020/12/13 06:24:07;;;;;;;0.80;0.80;;;6.30;99.90;;;;;;5033019;28;20442;-71
2020/12/13 06:26:34;;;;;;;1.10;1.10;;;6.30;99.90;;;;;;5032652;28;20985;-71
2020/12/13 06:29:02;;;;;;;0.70;0.60;;;6.30;99.90;;;;;;5032655;28;20960;-71
2020/12/13 06:31:29;;;;;;;0.70;0.70;;;6.30;99.90;;;;;;5033914;28;20459;-71
2020/12/13 06:33:56;;;;;;;0.70;0.70;;;6.30;99.90;;;;;;5036757;28;20443;-71
2020/12/13 06:36:24;;;;;;;0.67;0.67;;;6.30;99.90;;;;;;5036863;28;20478;-71
2020/12/13 06:38:56;;;;;;;0.70;0.70;;;6.30;99.90;;;;;;5036871;28;20817;-71
2020/12/13 06:41:24;;;;;;;0.70;0.70;;;6.30;99.90;;;;;;5036626;28;20506;-71
2020/12/13 06:44:03;;;;;;;0.70;0.70;;;6.30;99.90;;;;;;5036593;28;20453;-71
2020/12/13 06:46:30;;;;;;;1.20;1.00;;;6.30;99.90;;;;;;5036820;28;20418;-71
2020/12/13 06:48:58;;;;;;;0.60;0.60;;;6.30;99.90;;;;;;5036514;28;20446;-71
2020/12/13 06:51:29;;;;;;;1.23;0.80;;;6.30;99.90;;;;;;5036377;28;20516;-71
2020/12/13 06:53:57;;;;;;;0.90;0.70;;;6.30;99.90;;;;;;5036390;28;20898;-71
2020/12/13 06:56:23;;;;;;;1.33;0.70;;;6.30;99.90;;;;;;5035939;28;20478;-71
2020/12/13 06:58:55;;;;;;;0.70;0.70;;;6.30;99.90;;;;;;5036277;28;20454;-71
2020/12/13 07:01:24;;;;;;;0.90;0.77;;;6.30;99.90;;;;;;5035900;28;20471;-71
2020/12/13 07:03:51;;;;;;;0.70;0.70;;;6.30;99.90;;;;;;5036451;28;20446;-71
2020/12/13 07:06:21;;;;;;;0.80;0.80;;;6.30;99.90;;;;;;5036161;28;20443;-71
2020/12/13 07:08:53;;;;;;;1.03;0.80;;;6.40;99.90;;;;;;5036174;28;20437;-71
2020/12/13 07:11:22;;;;;;;0.80;0.80;;;6.40;99.90;;;;;;5036337;28;20502;-71
2020/12/13 07:13:49;;;;;;;1.43;0.97;;;6.30;99.90;;;;;;5035721;28;20962;-70
2020/12/13 07:16:28;;;;;;;2.00;0.90;;;6.20;99.90;;;;;;5035654;28;20478;-71
2020/12/13 07:19:05;;;;;;;1.00;0.90;;;6.20;99.90;;;;;;5036005;28;20427;-71
2020/12/13 07:21:32;;;;;;;1.30;1.20;;;6.20;99.90;;;;;;5035885;28;20462;-71
2020/12/13 07:24:00;;;;;;;1.63;1.20;;;6.20;99.90;;;;;;5035459;28;20818;-71
2020/12/13 07:26:28;;;;;;;1.80;1.20;;;6.20;99.90;;;;;;5035597;28;20467;-71
2020/12/13 07:28:56;;;;;;;1.40;1.30;;;6.20;99.90;;;;;;5035492;28;20934;-71
2020/12/13 07:31:23;;;;;;;1.77;1.40;;;6.20;99.90;;;;;;5035846;28;20471;-70
2020/12/13 07:33:50;;;;;;;1.50;1.40;;;6.20;99.90;;;;;;5035793;28;20909;-71
2020/12/13 07:36:16;;;;;;;1.50;1.33;;;6.20;99.90;;;;;;5035514;28;20490;-71
2020/12/13 07:38:43;;;;;;;1.97;1.63;;;6.20;99.90;;;;;;5035256;28;20846;-71
2020/12/13 07:41:18;;;;;;;3.53;1.90;;;6.20;99.90;;;;;;5035412;28;20473;-71
2020/12/13 07:43:56;;;;;;;2.73;1.93;;;6.20;99.90;;;;;;5034492;28;20441;-71
2020/12/13 07:46:22;;;;;;;1.80;1.70;;;6.20;99.90;;;;;;5035439;28;20415;-71
2020/12/13 07:49:03;;;;;;;1.97;1.80;;;6.20;99.90;;;;;;5035029;28;20443;-70
2020/12/13 07:51:29;;;;;;;1.50;1.40;;;6.30;99.90;;;;;;5034984;28;20855;-70
2020/12/13 07:53:56;;;;;;;1.80;1.57;;;6.20;99.90;;;;;;5035282;28;20443;-71
2020/12/13 07:56:24;;;;;;;2.20;2.00;;;6.20;99.90;;;;;;5035113;28;20486;-71
2020/12/13 07:58:51;;;;;;;1.70;1.60;;;6.30;99.90;;;;;;5035202;28;20454;-71
2020/12/13 08:01:17;;;;;;;1.87;1.77;;;6.30;99.90;;;;;;5035046;28;20830;-71
2020/12/13 08:03:44;;;;;;;1.90;1.80;;;6.30;99.90;;;;;;5034802;28;20445;-71
2020/12/13 08:06:13;;;;;;;2.97;2.20;;;6.30;99.90;;;;;;5035094;28;20419;-71
2020/12/13 08:08:43;;;;;;;1.87;1.47;;;6.30;99.90;;;;;;5034978;28;20451;-71
2020/12/13 08:11:12;;;;;;;1.87;1.77;;;6.30;99.90;;;;;;5034893;28;20512;-71
2020/12/13 08:13:45;;;;;;;2.07;1.50;;;6.30;99.90;;;;;;5034526;28;20454;-71
2020/12/13 08:16:13;;;;;;;3.30;2.20;;;6.30;99.90;;;;;;5034812;28;20475;-71
2020/12/13 08:18:44;;;;;;;1.57;1.40;;;6.30;99.90;;;;;;5035050;28;20446;-71
2020/12/13 08:21:12;;;;;;;2.30;1.70;;;6.30;99.90;;;;;;5034661;28;20462;-71
2020/12/13 08:23:39;;;;;;;2.10;1.90;;;6.40;99.90;;;;;;5034669;28;20443;-71
2020/12/13 08:26:06;;;;;;;1.40;1.30;;;6.40;99.90;;;;;;5034334;28;20990;-71
2020/12/13 08:28:34;;;;;;;2.10;1.50;;;6.50;99.90;;;;;;5034676;28;20431;-71
2020/12/13 08:31:02;;;;;;;1.70;1.60;;;6.50;99.90;;;;;;5034486;28;20470;-71
2020/12/13 08:33:28;;;;;;;2.80;1.60;;;6.60;99.90;;;;;;5034508;28;20438;-71
2020/12/13 08:35:54;;;;;;;1.43;1.27;;;6.70;99.90;;;;;;5034164;28;20833;-71
2020/12/13 08:38:23;;;;;;;1.90;1.10;;;6.80;99.90;;;;;;5034760;28;20419;-71
2020/12/13 08:40:51;;;;;;;2.37;1.30;;;6.90;99.90;;;;;;5034331;28;20892;-71
2020/12/13 08:43:18;;;;;;;1.80;1.60;;;7.00;99.90;;;;;;5034412;28;20459;-71
2020/12/13 08:45:53;;;;;;;1.87;1.40;;;7.20;99.90;;;;;;5034340;28;20510;-71
2020/12/13 08:48:25;;;;;;;1.50;1.40;;;7.30;99.90;;;;;;5034840;28;20419;-71
2020/12/13 08:51:04;;;;;;;2.47;1.57;;;7.30;99.90;;;;;;5034494;28;20501;-71
2020/12/13 08:53:30;;;;;;;1.70;1.60;;;7.50;99.90;;;;;;5033952;28;20438;-71
2020/12/13 08:56:03;;;;;;;2.70;1.90;;;7.70;99.90;;;;;;5033873;28;20482;-71
2020/12/13 08:58:29;;;;;;;1.57;1.47;;;7.80;99.90;;;;;;5034052;28;20449;-71
2020/12/13 09:01:05;;;;;;;1.57;1.40;;;8.10;99.90;;;;;;5034206;28;20470;-71
2020/12/13 09:03:32;;;;;;;1.70;1.10;;;8.40;99.90;;;;;;5033996;28;20431;-71
2020/12/13 09:05:58;;;;;;;1.10;1.00;;;8.70;99.90;;;;;;5033942;28;20446;-71
2020/12/13 09:08:24;;;;;;;1.17;1.07;;;8.80;99.90;;;;;;5033923;28;20458;-71
2020/12/13 09:10:52;;;;;;;1.03;1.03;;;9.10;99.90;;;;;;5033755;28;20466;-71
2020/12/13 09:13:18;;;;;;;1.83;0.90;;;9.20;99.90;;;;;;5033843;28;20442;-71
2020/12/13 09:15:45;;;;;;;0.90;0.90;;;9.20;99.90;;;;;;5033359;28;20482;-71
2020/12/13 09:18:12;;;;;;;1.10;1.10;;;9.20;99.90;;;;;;5033958;28;20438;-71
2020/12/13 09:20:38;;;;;;;1.33;1.20;;;9.10;99.90;;;;;;5033582;28;20459;-71
2020/12/13 09:23:06;;;;;;;2.13;0.90;;;9.10;99.90;;;;;;5033313;28;20934;-71
2020/12/13 09:25:36;;;;;;;1.20;1.10;;;9.10;99.90;;;;;;5033349;28;20546;-71
2020/12/13 09:28:03;;;;;;;0.90;0.90;;;8.90;99.90;;;;;;5033533;28;20434;-71
2020/12/13 09:30:29;;;;;;;1.00;1.00;;;8.90;99.90;;;;;;5033442;28;20466;-71
2020/12/13 09:32:55;;;;;;;1.60;1.10;;;8.90;99.90;;;;;;5033561;28;20826;-71
2020/12/13 09:35:23;;;;;;;1.53;1.17;;;8.80;99.90;;;;;;5033451;28;20481;-71
2020/12/13 09:37:49;;;;;;;1.30;1.00;;;8.70;99.90;;;;;;5033433;28;20446;-71
2020/12/13 09:40:15;;;;;;;1.00;1.00;;;8.70;99.90;;;;;;5033346;28;20459;-71
2020/12/13 09:42:41;;;;;;;0.80;0.80;;;9.20;99.90;;;;;;5033383;28;20454;-71
2020/12/13 09:45:08;;;;;;;0.90;0.90;;;11.10;99.90;;;;;;5033351;28;20443;-71
2020/12/13 09:47:34;;;;;;;0.93;0.90;;;13.70;99.90;;;;;;5033323;28;20447;-71
2020/12/13 09:50:00;;;;;;;0.73;0.73;;;16.30;99.90;;;;;;5033451;28;20438;-71
2020/12/13 09:52:28;;;;;;;0.70;0.70;;;18.80;92.20;;;;;;5033261;28;20444;-71
2020/12/13 09:54:54;;;;;;;0.93;0.80;;;19.20;77.00;;;;;;5032871;28;20508;-71
2020/12/13 09:57:20;;;;;;;0.77;0.77;;;18.10;77.00;;;;;;5033472;28;20438;-71
2020/12/13 09:59:46;;;;;;;1.00;1.00;;;16.50;83.10;;;;;;5033105;28;20446;-71
2020/12/13 10:02:13;;;;;;;0.73;0.73;;;14.80;89.40;;;;;;5033241;28;20442;-70
2020/12/13 10:04:39;;;;;;;0.60;0.60;;;13.50;93.30;;;;;;5032894;28;20948;-71
2020/12/13 10:07:25;;;;;;;0.70;0.63;;;12.40;96.10;;;;;;5035360;28;20451;-71
2020/12/13 10:09:51;;;;;;;0.70;0.70;;;11.60;99.70;;;;;;5037179;28;20430;-71
2020/12/13 10:12:17;;;;;;;0.73;0.73;;;10.80;99.90;;;;;;5036938;28;20948;-71
2020/12/13 10:14:45;;;;;;;1.73;0.90;;;10.40;99.90;;;;;;5036893;28;20907;-72
2020/12/13 10:17:11;;;;;;;0.70;0.70;;;10.00;99.90;;;;;;5037140;28;20415;-71
2020/12/13 10:19:38;;;;;;;0.67;0.67;;;9.70;99.90;;;;;;5037102;28;20429;-70
2020/12/13 10:22:04;;;;;;;0.70;0.70;;;9.50;99.90;;;;;;5036681;28;20973;-70
2020/12/13 10:24:30;;;;;;;0.90;0.90;;;9.30;99.90;;;;;;5037138;28;20449;-70
2020/12/13 10:26:57;;;;;;;1.10;1.00;;;9.10;99.90;;;;;;5036514;28;20475;-71
2020/12/13 10:29:23;;;;;;;0.70;0.70;;;9.00;99.90;;;;;;5037225;28;20418;-71
2020/12/13 10:31:49;;;;;;;1.37;0.97;;;8.90;99.90;;;;;;5036785;28;20799;-71
2020/12/13 10:34:16;;;;;;;1.33;1.00;;;8.80;99.90;;;;;;5036828;28;20427;-71
2020/12/13 10:36:43;;;;;;;2.20;0.80;;;8.70;99.90;;;;;;5036687;28;20551;-71
2020/12/13 10:39:10;;;;;;;0.73;0.73;;;8.70;99.90;;;;;;5036760;28;20434;-71
2020/12/13 10:41:37;;;;;;;1.07;0.97;;;8.60;99.90;;;;;;5036661;28;20821;-71
2020/12/13 10:44:04;;;;;;;1.07;1.07;;;8.60;99.90;;;;;;5036654;28;20789;-71
2020/12/13 10:46:31;;;;;;;1.07;0.97;;;8.60;99.90;;;;;;5036553;28;20423;-70
2020/12/13 10:48:57;;;;;;;1.30;1.20;;;8.60;99.90;;;;;;5036540;28;20418;-70
2020/12/13 10:51:24;;;;;;;1.33;1.10;;;8.60;99.90;;;;;;5036466;28;20454;-70
2020/12/13 10:53:50;;;;;;;2.07;1.90;;;8.60;99.90;;;;;;5036471;28;20431;-71
2020/12/13 10:56:16;;;;;;;1.30;1.20;;;8.60;99.90;;;;;;5036328;28;20462;-71
2020/12/13 10:58:44;;;;;;;2.07;1.63;;;8.70;99.90;;;;;;5036349;28;20434;-72
2020/12/13 11:01:12;;;;;;;3.00;1.83;;;8.70;99.90;;;;;;5036174;28;20466;-72
2020/12/13 11:03:38;;;;;;;1.50;1.27;;;8.60;99.90;;;;;;5036258;28;20427;-72
2020/12/13 11:06:07;;;;;;;1.80;1.70;;;8.60;99.90;;;;;;5036675;28;20765;-72
2020/12/13 11:08:33;;;;;;;2.10;1.90;;;8.60;99.90;;;;;;5036185;28;20426;-72
2020/12/13 11:10:59;;;;;;;3.20;2.90;;;8.60;99.90;;;;;;5035726;28;20459;-72
2020/12/13 11:13:26;;;;;;;3.60;3.30;;;8.60;99.90;;;;;;5036092;28;20431;-72
2020/12/13 11:15:52;;;;;;;4.50;2.70;;;8.60;99.90;;;;;;5035948;28;20474;-72
2020/12/13 11:18:19;;;;;;;2.17;1.97;;;8.60;99.90;;;;;;5036032;28;20829;-73
2020/12/13 11:20:46;;;;;;;1.80;1.70;;;8.60;99.90;;;;;;5035923;28;20516;-72
2020/12/13 11:23:12;;;;;;;2.57;2.37;;;8.70;99.90;;;;;;5035939;28;20477;-72
2020/12/13 11:25:38;;;;;;;1.80;1.70;;;8.60;99.90;;;;;;5035679;28;20474;-72
2020/12/13 11:28:06;;;;;;;2.77;1.87;;;8.60;99.90;;;;;;5035429;28;20823;-71
2020/12/13 11:30:32;;;;;;;1.90;1.80;;;8.50;99.90;;;;;;5035690;28;21032;-72
2020/12/13 11:32:58;;;;;;;2.70;1.73;;;8.50;99.90;;;;;;5035739;28;20514;-72
2020/12/13 11:35:25;;;;;;;5.40;1.90;;;8.50;99.90;;;;;;5036164;28;20482;-72
2020/12/13 11:37:52;;;;;;;1.90;1.80;;;8.40;99.90;;;;;;5035285;28;20801;-71
2020/12/13 11:40:18;;;;;;;2.00;1.90;;;8.40;99.90;;;;;;5035488;28;20470;-72
2020/12/13 11:42:44;;;;;;;2.17;1.50;;;8.40;99.90;;;;;;5035620;28;20438;-71
2020/12/13 11:45:11;;;;;;;3.23;2.10;;;8.30;99.90;;;;;;5035503;28;20438;-71
2020/12/13 11:47:37;;;;;;;3.30;2.90;;;8.20;99.90;;;;;;5035560;28;20435;-71
2020/12/13 11:50:05;;;;;;;6.70;4.67;;;8.20;99.90;;;;;;5035375;28;20467;-71
2020/12/13 11:52:32;;;;;;;9.37;5.70;;;8.20;99.90;;;;;;5035637;28;20522;-71
2020/12/13 11:54:58;;;;;;;5.80;3.83;;;8.20;99.90;;;;;;5035624;28;20422;-71
2020/12/13 11:57:25;;;;;;;2.53;2.10;;;8.10;99.90;;;;;;5035292;28;20390;-71
2020/12/13 11:59:51;;;;;;;1.90;1.67;;;8.10;99.90;;;;;;5035205;28;20419;-71
2020/12/13 12:02:17;;;;;;;2.47;2.07;;;8.10;99.90;;;;;;5034924;28;20434;-71
2020/12/13 12:04:43;;;;;;;2.90;2.50;;;8.10;99.90;;;;;;5035201;28;20422;-71
2020/12/13 12:07:09;;;;;;;3.47;2.77;;;8.10;99.90;;;;;;5035129;28;20416;-71
2020/12/13 12:09:37;;;;;;;4.30;2.17;;;8.10;99.90;;;;;;5034830;28;20917;-71
2020/12/13 12:12:03;;;;;;;6.87;3.60;;;8.20;99.90;;;;;;5034651;28;20990;-71
2020/12/13 12:14:29;;;;;;;8.33;4.47;;;8.10;99.90;;;;;;5034972;28;20430;-71
2020/12/13 12:16:56;;;;;;;8.03;3.90;;;8.10;99.90;;;;;;5034846;28;20466;-71
2020/12/13 12:19:22;;;;;;;6.40;3.70;;;8.00;99.90;;;;;;5035141;28;20438;-71
2020/12/13 12:21:50;;;;;;;5.97;3.97;;;8.00;99.90;;;;;;5034781;28;20470;-71
2020/12/13 12:24:19;;;;;;;6.13;4.17;;;8.00;99.90;;;;;;5034804;28;20427;-72
2020/12/13 12:26:47;;;;;;;4.30;2.97;;;7.90;99.90;;;;;;5034568;28;20497;-71
2020/12/13 12:29:13;;;;;;;3.70;2.43;;;7.90;99.90;;;;;;5034194;28;20438;-72
2020/12/13 12:31:39;;;;;;;2.33;2.13;;;7.90;99.90;;;;;;5034687;28;20477;-72
2020/12/13 12:34:05;;;;;;;2.60;1.90;;;7.90;99.90;;;;;;5034613;28;20479;-71
2020/12/13 12:36:32;;;;;;;1.87;1.77;;;8.00;99.90;;;;;;5034483;28;20467;-72
2020/12/13 12:38:58;;;;;;;1.70;1.60;;;7.90;99.90;;;;;;5034549;28;20429;-71
2020/12/13 12:41:24;;;;;;;3.17;2.40;;;7.90;99.90;;;;;;5034746;28;20461;-74
2020/12/13 12:43:52;;;;;;;2.37;1.70;;;7.90;99.90;;;;;;5034422;28;20446;-74
2020/12/13 12:46:19;;;;;;;2.43;2.20;;;7.90;99.90;;;;;;5034393;28;20434;-74
2020/12/13 12:48:47;;;;;;;1.90;1.73;;;7.80;99.90;;;;;;5034278;28;20488;-74
2020/12/13 12:51:15;;;;;;;2.80;2.00;;;7.80;99.90;;;;;;5033884;28;20528;-74
2020/12/13 12:53:41;;;;;;;1.80;1.70;;;7.90;99.90;;;;;;5033900;28;20442;-74
2020/12/13 12:56:09;;;;;;;1.70;1.60;;;7.80;99.90;;;;;;5033839;28;20463;-74
2020/12/13 12:58:43;;;;;;;1.70;1.60;;;7.80;99.90;;;;;;5033868;28;20973;-74
2020/12/13 13:01:12;;;;;;;2.90;2.07;;;7.80;99.90;;;;;;5033678;28;20962;-74
2020/12/13 13:03:40;;;;;;;3.03;2.10;;;7.80;99.90;;;;;;5034030;28;20537;-74